^^
Datos históricos de la estación: Murcia-Puente Tocinos
Diario Informe para Julio 12, 2019 Unidades:  Ambas    Ingés   Métrico
Diario Semanal Mensual Anual
  Máxima: Mínima: Promedio:
Temperatura: 79.2 °F /  26.2 °C 68.4 °F /  20.2 °C 72.3 °F /  22.4 °C
Punto de rocio: 69.1 °F /  20.6 °C 62.6 °F /  17 °C 65.5 °F /  18.6 °C
Humedad: 90% 65.6% 79%
Velocidad viento: 9.7mph /  15.6km/h - 4mph /  6.4km/h
Racha viento: 17.5mph /  28.2km/h - -
Viento- - SSE
Presión: 30.1 in /  1018.1 hPa 29.9 in /  1013.9 hPa -
Precipitación: 0 in /  0.0 mm    
 
 
Tabla de datos para Julio 12, 2019
Hora Temperatura Punto de rocio Presión Viento Velocidad viento Racha viento Humedad Intensidad lluvia(por hora) Nubes
00:04 70.3 °F /  21.3 °C 65.3 °F /  18.5 °C 30.1in /  1018.0hPa NO 1.4mph /  2.2km/h 3mph /  4.8km/h 84% 0in /  0.0mm
00:09 70.3 °F /  21.3 °C 65.3 °F /  18.5 °C 30.1in /  1018.0hPa NO 1.4mph /  2.2km/h 3.5mph /  5.6km/h 84% 0in /  0.0mm
00:14 70.3 °F /  21.3 °C 65.3 °F /  18.5 °C 30.1in /  1018.0hPa Oeste 1.4mph /  2.2km/h 5mph /  8km/h 84% 0in /  0.0mm
00:19 70.3 °F /  21.3 °C 65.3 °F /  18.5 °C 30.1in /  1018.1hPa OSO 1.6mph /  2.5km/h 4.7mph /  7.6km/h 84% 0in /  0.0mm
00:24 70.3 °F /  21.3 °C 65.3 °F /  18.5 °C 30.1in /  1018.1hPa SO 2.4mph /  3.9km/h 5mph /  8km/h 84% 0in /  0.0mm
00:29 70.3 °F /  21.3 °C 65.3 °F /  18.5 °C 30.1in /  1018.1hPa SO 2.2mph /  3.5km/h 2.9mph /  4.7km/h 84% 0in /  0.0mm
00:34 70.3 °F /  21.3 °C 65.3 °F /  18.5 °C 30.1in /  1018.1hPa OSO 1.4mph /  2.2km/h 4.6mph /  7.4km/h 84% 0in /  0.0mm
00:39 70.3 °F /  21.3 °C 65.3 °F /  18.5 °C 30.1in /  1018.0hPa Oeste 1.5mph /  2.4km/h 5mph /  8km/h 84% 0in /  0.0mm
00:44 70.3 °F /  21.3 °C 65.3 °F /  18.5 °C 30.1in /  1018.0hPa Oeste 2mph /  3.2km/h 4.3mph /  6.9km/h 84% 0in /  0.0mm
00:49 70.3 °F /  21.3 °C 65.3 °F /  18.5 °C 30.1in /  1018.0hPa Oeste 2mph /  3.2km/h 5mph /  8km/h 84% 0in /  0.0mm
00:54 70.3 °F /  21.3 °C 65.3 °F /  18.5 °C 30.1in /  1018.0hPa Oeste 2mph /  3.2km/h 4mph /  6.4km/h 84% 0in /  0.0mm
00:59 70.3 °F /  21.3 °C 65.3 °F /  18.5 °C 30.1in /  1018.0hPa Oeste 2mph /  3.2km/h 4.6mph /  7.4km/h 84% 0in /  0.0mm
01:04 70.2 °F /  21.2 °C 65.1 °F /  18.4 °C 30.1in /  1018.0hPa ONO 2mph /  3.2km/h 5mph /  8km/h 84% 0in /  0.0mm
01:09 70.2 °F /  21.2 °C 65.1 °F /  18.4 °C 30.1in /  1018.0hPa Oeste 2mph /  3.2km/h 4mph /  6.4km/h 84% 0in /  0.0mm
01:14 70.2 °F /  21.2 °C 65.1 °F /  18.4 °C 30.1in /  1018.0hPa Oeste 1.8mph /  2.9km/h 4.7mph /  7.6km/h 84% 0in /  0.0mm
01:19 70.3 °F /  21.3 °C 65.3 °F /  18.5 °C 30.1in /  1018.0hPa Oeste 1.9mph /  3.1km/h 5mph /  8km/h 84% 0in /  0.0mm
01:24 70.3 °F /  21.3 °C 65.3 °F /  18.5 °C 30.1in /  1017.9hPa Oeste 2.4mph /  3.9km/h 5mph /  8km/h 84% 0in /  0.0mm
01:29 70.3 °F /  21.3 °C 65.3 °F /  18.5 °C 30.1in /  1017.9hPa Oeste 2.3mph /  3.7km/h 5mph /  8km/h 84% 0in /  0.0mm
01:34 70.3 °F /  21.3 °C 65.3 °F /  18.5 °C 30.1in /  1017.9hPa OSO 2mph /  3.2km/h 5mph /  8km/h 84% 0in /  0.0mm
01:39 70.3 °F /  21.3 °C 65.3 °F /  18.5 °C 30.1in /  1017.8hPa OSO 2mph /  3.2km/h 5mph /  8km/h 84% 0in /  0.0mm
01:44 70.3 °F /  21.3 °C 65.3 °F /  18.5 °C 30.1in /  1017.8hPa OSO 1.8mph /  2.9km/h 3mph /  4.8km/h 84% 0in /  0.0mm
01:49 70.3 °F /  21.3 °C 64.9 °F /  18.3 °C 30.1in /  1017.8hPa OSO 1.4mph /  2.3km/h 2mph /  3.2km/h 83.3% 0in /  0.0mm
01:54 70.3 °F /  21.3 °C 64.9 °F /  18.3 °C 30.1in /  1017.6hPa Calm     83% 0in /  0.0mm
01:59 70.3 °F /  21.3 °C 64.9 °F /  18.3 °C 30.1in /  1017.6hPa Calm     83% 0in /  0.0mm
02:04 70.3 °F /  21.3 °C 64.9 °F /  18.3 °C 30.1in /  1017.6hPa Calm     83% 0in /  0.0mm
02:09 70.2 °F /  21.2 °C 65.1 °F /  18.4 °C 30in /  1017.3hPa Calm     83.9% 0in /  0.0mm
02:14 70.2 °F /  21.2 °C 65.1 °F /  18.4 °C 30in /  1017.3hPa Calm     84% 0in /  0.0mm
02:19 70.2 °F /  21.2 °C 64.9 °F /  18.3 °C 30in /  1017.3hPa Calm     84% 0in /  0.0mm
02:24 70 °F /  21.1 °C 64.9 °F /  18.3 °C 30in /  1017.3hPa Calm     84% 0in /  0.0mm
02:29 69.8 °F /  21 °C 64.8 °F /  18.2 °C 30in /  1017.3hPa Calm   2.4mph /  3.9km/h 84% 0in /  0.0mm
02:34 69.6 °F /  20.9 °C 64.6 °F /  18.1 °C 30in /  1017.3hPa Calm   3.6mph /  5.8km/h 84% 0in /  0.0mm
02:39 69.6 °F /  20.9 °C 64.6 °F /  18.1 °C 30in /  1017.0hPa OSO 0.4mph /  0.6km/h 4mph /  6.4km/h 84.2% 0in /  0.0mm
02:44 69.4 °F /  20.8 °C 64.8 °F /  18.2 °C 30in /  1017.0hPa OSO 1.8mph /  2.9km/h 4mph /  6.4km/h 85% 0in /  0.0mm
02:49 69.4 °F /  20.8 °C 64.8 °F /  18.2 °C 30in /  1017.0hPa OSO 1.9mph /  3km/h 3.5mph /  5.6km/h 85% 0in /  0.0mm
02:54 69.4 °F /  20.8 °C 64.8 °F /  18.2 °C 30in /  1017.0hPa OSO 2mph /  3.2km/h 3mph /  4.8km/h 85% 0in /  0.0mm
02:59 69.4 °F /  20.8 °C 64.6 °F /  18.1 °C 30in /  1017.0hPa OSO 1.9mph /  3km/h 3mph /  4.8km/h 85% 0in /  0.0mm
03:04 69.3 °F /  20.7 °C 64.6 °F /  18.1 °C 30in /  1017.0hPa OSO 1.4mph /  2.2km/h 2.3mph /  3.7km/h 85% 0in /  0.0mm
03:09 69.4 °F /  20.8 °C 64.8 °F /  18.2 °C 30in /  1017.0hPa OSO 1.1mph /  1.8km/h 2.3mph /  3.7km/h 85% 0in /  0.0mm
03:14 69.4 °F /  20.8 °C 64.8 °F /  18.2 °C 30in /  1017.0hPa Calm   4.6mph /  7.4km/h 85% 0in /  0.0mm
03:19 69.4 °F /  20.8 °C 64.8 °F /  18.2 °C 30in /  1017.0hPa OSO 0.3mph /  0.5km/h 5mph /  8km/h 85% 0in /  0.0mm
03:24 69.4 °F /  20.8 °C 64.8 °F /  18.2 °C 30in /  1016.9hPa OSO 1.8mph /  2.9km/h 3mph /  4.8km/h 85% 0in /  0.0mm
03:29 69.4 °F /  20.8 °C 64.8 °F /  18.2 °C 30in /  1016.9hPa OSO 1.8mph /  2.9km/h 4.6mph /  7.4km/h 85% 0in /  0.0mm
03:34 69.4 °F /  20.8 °C 64.8 °F /  18.2 °C 30in /  1016.9hPa OSO 1.8mph /  2.9km/h 5mph /  8km/h 85% 0in /  0.0mm
03:39 69.4 °F /  20.8 °C 64.8 °F /  18.2 °C 30in /  1016.8hPa Oeste 2.1mph /  3.3km/h 5mph /  8km/h 85% 0in /  0.0mm
03:44 69.4 °F /  20.8 °C 64.8 °F /  18.2 °C 30in /  1016.8hPa Oeste 2.9mph /  4.7km/h 5mph /  8km/h 85% 0in /  0.0mm
03:49 69.4 °F /  20.8 °C 64.8 °F /  18.2 °C 30in /  1016.8hPa Oeste 2.7mph /  4.3km/h 5mph /  8km/h 85% 0in /  0.0mm
03:54 69.4 °F /  20.8 °C 64.4 °F /  18 °C 30in /  1016.6hPa Oeste 2mph /  3.2km/h 3mph /  4.8km/h 84.1% 0in /  0.0mm
03:59 69.4 °F /  20.8 °C 64.4 °F /  18 °C 30in /  1016.6hPa Oeste 1.6mph /  2.5km/h 2.4mph /  3.9km/h 84% 0in /  0.0mm
04:04 69.4 °F /  20.8 °C 64.4 °F /  18 °C 30in /  1016.6hPa Calm   2mph /  3.2km/h 84% 0in /  0.0mm
04:09 69.4 °F /  20.8 °C 64.4 °F /  18 °C 30in /  1016.5hPa Calm   2mph /  3.2km/h 84% 0in /  0.0mm
04:14 69.4 °F /  20.8 °C 64.4 °F /  18 °C 30in /  1016.5hPa Calm   2.9mph /  4.7km/h 84% 0in /  0.0mm
04:19 69.4 °F /  20.8 °C 64.4 °F /  18 °C 30in /  1016.5hPa Oeste 0.3mph /  0.5km/h 3mph /  4.8km/h 84% 0in /  0.0mm
04:24 69.4 °F /  20.8 °C 64.4 °F /  18 °C 30in /  1016.2hPa Oeste 1.4mph /  2.2km/h 2mph /  3.2km/h 84% 0in /  0.0mm
04:29 69.3 °F /  20.7 °C 64.2 °F /  17.9 °C 30in /  1016.2hPa Oeste 1.1mph /  1.8km/h 1.4mph /  2.3km/h 84% 0in /  0.0mm
04:34 69.3 °F /  20.7 °C 64.6 °F /  18.1 °C 30in /  1016.2hPa Calm   4mph /  6.4km/h 85% 0in /  0.0mm
04:39 69.3 °F /  20.7 °C 64.6 °F /  18.1 °C 30in /  1016.1hPa SSE 0.4mph /  0.7km/h 5.8mph /  9.3km/h 85% 0in /  0.0mm
04:44 69.1 °F /  20.6 °C 64.4 °F /  18 °C 30in /  1016.1hPa SSE 2mph /  3.2km/h 6mph /  9.7km/h 85% 0in /  0.0mm
04:49 68.9 °F /  20.5 °C 64.2 °F /  17.9 °C 30in /  1016.1hPa Sur 2.2mph /  3.6km/h 5mph /  8km/h 85% 0in /  0.0mm
04:54 68.7 °F /  20.4 °C 64.2 °F /  17.9 °C 30in /  1016.1hPa SSO 3.1mph /  5km/h 6.2mph /  10km/h 85.7% 0in /  0.0mm
04:59 68.5 °F /  20.3 °C 64.2 °F /  17.9 °C 30in /  1016.1hPa SSO 3.3mph /  5.3km/h 6mph /  9.7km/h 86% 0in /  0.0mm
05:04 68.5 °F /  20.3 °C 64.2 °F /  17.9 °C 30in /  1016.2hPa SSO 4mph /  6.4km/h 6mph /  9.7km/h 86% 0in /  0.0mm
05:09 68.5 °F /  20.3 °C 64.2 °F /  17.9 °C 30in /  1016.2hPa SSO 3.9mph /  6.3km/h 6.2mph /  10km/h 86% 0in /  0.0mm
05:14 68.5 °F /  20.3 °C 64.2 °F /  17.9 °C 30in /  1016.2hPa SO 3.6mph /  5.8km/h 6mph /  9.7km/h 86% 0in /  0.0mm
05:19 68.5 °F /  20.3 °C 64 °F /  17.8 °C 30in /  1016.2hPa OSO 3.6mph /  5.8km/h 6mph /  9.7km/h 85.2% 0in /  0.0mm
05:24 68.5 °F /  20.3 °C 63.9 °F /  17.7 °C 30in /  1016.1hPa Oeste 3.6mph /  5.8km/h 6mph /  9.7km/h 84.6% 0in /  0.0mm
05:29 68.7 °F /  20.4 °C 63.7 °F /  17.6 °C 30in /  1016.1hPa OSO 3.3mph /  5.3km/h 5mph /  8km/h 84% 0in /  0.0mm
05:34 68.7 °F /  20.4 °C 63.7 °F /  17.6 °C 30in /  1016.1hPa OSO 2mph /  3.2km/h 7.4mph /  11.9km/h 84% 0in /  0.0mm
05:39 68.7 °F /  20.4 °C 63.3 °F /  17.4 °C 30in /  1016.0hPa SO 2.4mph /  3.9km/h 7mph /  11.3km/h 83.1% 0in /  0.0mm
05:44 68.7 °F /  20.4 °C 63.3 °F /  17.4 °C 30in /  1016.0hPa SO 4mph /  6.4km/h 6mph /  9.7km/h 83% 0in /  0.0mm
05:49 68.7 °F /  20.4 °C 63.3 °F /  17.4 °C 30in /  1016.0hPa OSO 3.9mph /  6.2km/h 6.2mph /  10km/h 83% 0in /  0.0mm
05:54 68.7 °F /  20.4 °C 63.3 °F /  17.4 °C 30in /  1016.0hPa SO 3.1mph /  5km/h 6.9mph /  11.1km/h 83% 0in /  0.0mm
05:59 68.7 °F /  20.4 °C 63.1 °F /  17.3 °C 30in /  1016.0hPa OSO 3.3mph /  5.3km/h 8.1mph /  13km/h 82.7% 0in /  0.0mm
06:04 68.5 °F /  20.3 °C 63.1 °F /  17.3 °C 30in /  1016.0hPa OSO 4mph /  6.4km/h 8mph /  12.9km/h 82.8% 0in /  0.0mm
06:09 68.5 °F /  20.3 °C 63.1 °F /  17.3 °C 30in /  1016.0hPa OSO 4mph /  6.5km/h 7mph /  11.3km/h 83% 0in /  0.0mm
06:14 68.5 °F /  20.3 °C 63.1 °F /  17.3 °C 30in /  1016.0hPa OSO 4mph /  6.5km/h 5mph /  8km/h 83% 0in /  0.0mm
06:19 68.5 °F /  20.3 °C 63.1 °F /  17.3 °C 30in /  1016.1hPa OSO 3.5mph /  5.7km/h 4.7mph /  7.6km/h 83% 0in /  0.0mm
06:24 68.5 °F /  20.3 °C 63.1 °F /  17.3 °C 30in /  1016.1hPa Sur 1.8mph /  2.9km/h 5mph /  8km/h 83% 0in /  0.0mm
06:29 68.5 °F /  20.3 °C 63.1 °F /  17.3 °C 30in /  1016.1hPa Sur 2.1mph /  3.3km/h 5.4mph /  8.7km/h 83% 0in /  0.0mm
06:34 68.5 °F /  20.3 °C 63.1 °F /  17.3 °C 30in /  1016.2hPa Sur 3.1mph /  5km/h 6mph /  9.7km/h 83% 0in /  0.0mm
06:39 68.4 °F /  20.2 °C 63 °F /  17.2 °C 30in /  1016.2hPa Sur 3.1mph /  5km/h 5mph /  8km/h 83% 0in /  0.0mm
06:44 68.4 °F /  20.2 °C 63 °F /  17.2 °C 30in /  1016.2hPa SSO 3.1mph /  5km/h 5.9mph /  9.5km/h 83% 0in /  0.0mm
06:49 68.4 °F /  20.2 °C 63 °F /  17.2 °C 30in /  1016.2hPa SSO 3.1mph /  5km/h 6mph /  9.7km/h 83% 0in /  0.0mm
06:54 68.4 °F /  20.2 °C 63.1 °F /  17.3 °C 30in /  1016.1hPa SSO 3.1mph /  5km/h 6mph /  9.7km/h 83% 0in /  0.0mm
06:59 68.5 °F /  20.3 °C 63.1 °F /  17.3 °C 30in /  1016.1hPa SSO 3.1mph /  5km/h 5mph /  8km/h 83% 0in /  0.0mm
07:04 68.5 °F /  20.3 °C 63.1 °F /  17.3 °C 30in /  1016.1hPa SSO 3.1mph /  5km/h 5mph /  8km/h 83% 0in /  0.0mm
07:09 68.5 °F /  20.3 °C 63.1 °F /  17.3 °C 30in /  1016.1hPa SSO 2.9mph /  4.6km/h 4.6mph /  7.4km/h 83% 0in /  0.0mm
07:14 68.5 °F /  20.3 °C 63.1 °F /  17.3 °C 30in /  1016.1hPa SO 2mph /  3.2km/h 5.8mph /  9.3km/h 82.7% 0in /  0.0mm
07:19 68.5 °F /  20.3 °C 63 °F /  17.2 °C 30in /  1016.3hPa SO 2.2mph /  3.6km/h 6.2mph /  10km/h 82% 0in /  0.0mm
07:24 68.7 °F /  20.4 °C 63 °F /  17.2 °C 30in /  1016.3hPa SO 3.1mph /  5km/h 6mph /  9.7km/h 82% 0in /  0.0mm
07:29 68.7 °F /  20.4 °C 63 °F /  17.2 °C 30in /  1016.3hPa SO 2.9mph /  4.6km/h 5mph /  8km/h 82% 0in /  0.0mm
07:34 68.7 °F /  20.4 °C 63 °F /  17.2 °C 30in /  1016.3hPa SO 2mph /  3.2km/h 4.6mph /  7.4km/h 82% 0in /  0.0mm
07:39 68.7 °F /  20.4 °C 63 °F /  17.2 °C 30in /  1016.1hPa SO 2.1mph /  3.3km/h 5mph /  8km/h 82% 0in /  0.0mm
07:44 68.7 °F /  20.4 °C 63 °F /  17.2 °C 30in /  1016.1hPa SO 2.4mph /  3.9km/h 5.9mph /  9.5km/h 82% 0in /  0.0mm
07:49 68.7 °F /  20.4 °C 63 °F /  17.2 °C 30in /  1016.1hPa SO 2.5mph /  4km/h 6mph /  9.7km/h 82% 0in /  0.0mm
07:54 68.7 °F /  20.4 °C 63 °F /  17.2 °C 30in /  1016.0hPa SO 2.9mph /  4.7km/h 5.9mph /  9.5km/h 82% 0in /  0.0mm
07:59 68.5 °F /  20.3 °C 63 °F /  17.2 °C 30in /  1016.0hPa SSO 2.9mph /  4.7km/h 6mph /  9.7km/h 82% 0in /  0.0mm
08:04 68.5 °F /  20.3 °C 62.8 °F /  17.1 °C 30in /  1016.1hPa SSO 2.9mph /  4.7km/h 5mph /  8km/h 82% 0in /  0.0mm
08:09 68.5 °F /  20.3 °C 63 °F /  17.2 °C 30in /  1016.1hPa SO 2.9mph /  4.7km/h 6.4mph /  10.3km/h 82% 0in /  0.0mm
08:14 68.5 °F /  20.3 °C 63 °F /  17.2 °C 30in /  1016.1hPa SO 2.9mph /  4.7km/h 7mph /  11.3km/h 82% 0in /  0.0mm
08:19 68.7 °F /  20.4 °C 63 °F /  17.2 °C 30in /  1016.2hPa SO 3.1mph /  5km/h 7mph /  11.3km/h 82% 0in /  0.0mm
08:24 68.7 °F /  20.4 °C 63 °F /  17.2 °C 30in /  1016.2hPa SO 4mph /  6.4km/h 10.4mph /  16.7km/h 82% 0in /  0.0mm
08:29 68.7 °F /  20.4 °C 63 °F /  17.2 °C 30in /  1016.2hPa SO 4.2mph /  6.7km/h 10mph /  16.1km/h 82% 0in /  0.0mm
08:34 68.5 °F /  20.3 °C 62.8 °F /  17.1 °C 30in /  1016.3hPa SSO 4.7mph /  7.6km/h 8mph /  12.9km/h 82% 0in /  0.0mm
08:39 68.5 °F /  20.3 °C 63 °F /  17.2 °C 30in /  1016.3hPa SSO 4.6mph /  7.4km/h 7mph /  11.3km/h 82.5% 0in /  0.0mm
08:44 68.4 °F /  20.2 °C 63.1 °F /  17.3 °C 30in /  1016.3hPa SSO 4.3mph /  6.9km/h 8.1mph /  13km/h 83% 0in /  0.0mm
08:49 68.4 °F /  20.2 °C 63 °F /  17.2 °C 30in /  1016.3hPa SO 4.4mph /  7.1km/h 8.5mph /  13.7km/h 83% 0in /  0.0mm
08:54 68.4 °F /  20.2 °C 63 °F /  17.2 °C 30in /  1016.3hPa SSO 4.7mph /  7.6km/h 9mph /  14.5km/h 83% 0in /  0.0mm
08:59 68.4 °F /  20.2 °C 63 °F /  17.2 °C 30in /  1016.3hPa SSO 4.6mph /  7.4km/h 9.2mph /  14.8km/h 83% 0in /  0.0mm
09:04 68.4 °F /  20.2 °C 63 °F /  17.2 °C 30in /  1016.4hPa SSO 4.3mph /  6.9km/h 9mph /  14.5km/h 83% 0in /  0.0mm
09:09 68.4 °F /  20.2 °C 63 °F /  17.2 °C 30in /  1016.4hPa SSO 4.5mph /  7.2km/h 7.4mph /  11.9km/h 83% 0in /  0.0mm
09:14 68.4 °F /  20.2 °C 63 °F /  17.2 °C 30in /  1016.4hPa SSO 5.2mph /  8.4km/h 8.1mph /  13km/h 83% 0in /  0.0mm
09:19 68.4 °F /  20.2 °C 63 °F /  17.2 °C 30in /  1016.5hPa SO 5.2mph /  8.4km/h 8.5mph /  13.7km/h 83% 0in /  0.0mm
09:24 68.4 °F /  20.2 °C 63 °F /  17.2 °C 30in /  1016.5hPa SO 5.4mph /  8.7km/h 9mph /  14.5km/h 83% 0in /  0.0mm
09:29 68.4 °F /  20.2 °C 62.6 °F /  17 °C 30in /  1016.5hPa SSO 5.3mph /  8.5km/h 8.1mph /  13km/h 82.2% 0in /  0.0mm
09:34 68.4 °F /  20.2 °C 63 °F /  17.2 °C 30in /  1016.5hPa SSO 4.7mph /  7.6km/h 8mph /  12.9km/h 82.7% 0in /  0.0mm
09:39 68.4 °F /  20.2 °C 63 °F /  17.2 °C 30in /  1016.5hPa SO 4.6mph /  7.4km/h 7.4mph /  11.9km/h 83% 0in /  0.0mm
09:44 68.4 °F /  20.2 °C 62.8 °F /  17.1 °C 30in /  1016.5hPa SO 4.3mph /  6.9km/h 8.1mph /  13km/h 82.4% 0in /  0.0mm
09:49 68.5 °F /  20.3 °C 62.8 °F /  17.1 °C 30in /  1016.8hPa SSO 4.4mph /  7.1km/h 8.1mph /  13km/h 82% 0in /  0.0mm
09:54 68.5 °F /  20.3 °C 62.8 °F /  17.1 °C 30in /  1016.8hPa SSO 4.7mph /  7.6km/h 9.2mph /  14.8km/h 82% 0in /  0.0mm
09:59 68.5 °F /  20.3 °C 62.8 °F /  17.1 °C 30in /  1016.8hPa SSO 4.8mph /  7.8km/h 9mph /  14.5km/h 82% 0in /  0.0mm
10:04 68.5 °F /  20.3 °C 62.8 °F /  17.1 °C 30in /  1017.0hPa SSO 5.4mph /  8.7km/h 7.4mph /  11.9km/h 82% 0in /  0.0mm
10:09 68.7 °F /  20.4 °C 63.1 °F /  17.3 °C 30in /  1017.0hPa SO 5.3mph /  8.5km/h 8.1mph /  13km/h 82% 0in /  0.0mm
10:14 68.9 °F /  20.5 °C 62.8 °F /  17.1 °C 30in /  1017.0hPa SSO 4.7mph /  7.6km/h 8.1mph /  13km/h 81.1% 0in /  0.0mm
10:19 69.1 °F /  20.6 °C 63 °F /  17.2 °C 30in /  1017.2hPa SSO 4.8mph /  7.8km/h 8.1mph /  13km/h 81% 0in /  0.0mm
10:24 69.3 °F /  20.7 °C 63.1 °F /  17.3 °C 30in /  1017.2hPa SSO 5.4mph /  8.7km/h 8.7mph /  14km/h 81% 0in /  0.0mm
10:29 69.3 °F /  20.7 °C 63 °F /  17.2 °C 30in /  1017.2hPa SSO 5.5mph /  8.9km/h 9.7mph /  15.6km/h 80.6% 0in /  0.0mm
10:34 69.3 °F /  20.7 °C 62.8 °F /  17.1 °C 30in /  1017.2hPa SSO 5.9mph /  9.5km/h 10mph /  16.1km/h 80% 0in /  0.0mm
10:39 69.4 °F /  20.8 °C 63 °F /  17.2 °C 30in /  1017.1hPa SSO 5.9mph /  9.5km/h 9mph /  14.5km/h 80% 0in /  0.0mm
10:44 69.4 °F /  20.8 °C 63 °F /  17.2 °C 30in /  1017.1hPa SSO 5.9mph /  9.5km/h 8mph /  12.9km/h 80% 0in /  0.0mm
10:49 69.6 °F /  20.9 °C 63.1 °F /  17.3 °C 30in /  1017.2hPa SSO 5.8mph /  9.3km/h 9.2mph /  14.8km/h 80% 0in /  0.0mm
10:54 69.6 °F /  20.9 °C 63.1 °F /  17.3 °C 30in /  1017.2hPa SSO 5.2mph /  8.4km/h 9mph /  14.5km/h 79.9% 0in /  0.0mm
10:59 69.8 °F /  21 °C 63.1 °F /  17.3 °C 30in /  1017.2hPa SSO 5.2mph /  8.4km/h 8.5mph /  13.7km/h 79.1% 0in /  0.0mm
11:04 70 °F /  21.1 °C 63.1 °F /  17.3 °C 30in /  1017.3hPa Sur 5.2mph /  8.4km/h 9mph /  14.5km/h 79% 0in /  0.0mm
11:09 70 °F /  21.1 °C 63.1 °F /  17.3 °C 30in /  1017.3hPa Sur 5.1mph /  8.2km/h 8mph /  12.9km/h 79% 0in /  0.0mm
11:14 70.2 °F /  21.2 °C 63.3 °F /  17.4 °C 30in /  1017.3hPa Sur 4.7mph /  7.6km/h 6.2mph /  10km/h 79% 0in /  0.0mm
11:19 70.3 °F /  21.3 °C 63.3 °F /  17.4 °C 30in /  1017.3hPa SSO 4.5mph /  7.3km/h 6.9mph /  11.1km/h 78.6% 0in /  0.0mm
11:24 70.5 °F /  21.4 °C 63.3 °F /  17.4 °C 30in /  1017.3hPa SSO 4mph /  6.5km/h 7.4mph /  11.9km/h 78% 0in /  0.0mm
11:29 70.5 °F /  21.4 °C 63.1 °F /  17.3 °C 30in /  1017.3hPa SSO 4.2mph /  6.7km/h 7mph /  11.3km/h 77.7% 0in /  0.0mm
11:34 70.7 °F /  21.5 °C 63.3 °F /  17.4 °C 30in /  1017.3hPa Sur 4.7mph /  7.6km/h 8.1mph /  13km/h 77.9% 0in /  0.0mm
11:39 70.9 °F /  21.6 °C 63.3 °F /  17.4 °C 30in /  1017.2hPa SSO 4.8mph /  7.7km/h 8.1mph /  13km/h 77.1% 0in /  0.0mm
11:44 71.1 °F /  21.7 °C 63.3 °F /  17.4 °C 30in /  1017.2hPa Sur 5.2mph /  8.4km/h 8.1mph /  13km/h 77% 0in /  0.0mm
11:49 71.2 °F /  21.8 °C 63.7 °F /  17.6 °C 30in /  1017.2hPa Sur 5.2mph /  8.4km/h 8mph /  12.9km/h 77% 0in /  0.0mm
11:54 71.4 °F /  21.9 °C 63.7 °F /  17.6 °C 30in /  1017.1hPa Sur 5.2mph /  8.4km/h 7.4mph /  11.9km/h 76.2% 0in /  0.0mm
11:59 71.8 °F /  22.1 °C 63.7 °F /  17.6 °C 30in /  1017.1hPa SSE 5.1mph /  8.2km/h 8.1mph /  13km/h 75.9% 0in /  0.0mm
12:04 71.8 °F /  22.1 °C 63.7 °F /  17.6 °C 30in /  1017.2hPa Sur 4.7mph /  7.6km/h 8.5mph /  13.7km/h 75.6% 0in /  0.0mm
12:09 72 °F /  22.2 °C 63.9 °F /  17.7 °C 30in /  1017.2hPa Sur 5mph /  8km/h 9.7mph /  15.6km/h 75.5% 0in /  0.0mm
12:14 72.1 °F /  22.3 °C 63.9 °F /  17.7 °C 30in /  1017.2hPa Sur 5.9mph /  9.5km/h 10mph /  16.1km/h 75% 0in /  0.0mm
12:19 72.1 °F /  22.3 °C 63.9 °F /  17.7 °C 30in /  1017.2hPa Sur 5.9mph /  9.5km/h 9.2mph /  14.8km/h 75% 0in /  0.0mm
12:24 72.3 °F /  22.4 °C 63.9 °F /  17.7 °C 30in /  1017.1hPa Sur 5.9mph /  9.5km/h 9.7mph /  15.6km/h 75% 0in /  0.0mm
12:29 72.5 °F /  22.5 °C 64.2 °F /  17.9 °C 30in /  1017.1hPa Sur 6mph /  9.6km/h 10mph /  16.1km/h 75% 0in /  0.0mm
12:34 72.7 °F /  22.6 °C 64.2 °F /  17.9 °C 30in /  1017.1hPa Sur 6.2mph /  10km/h 10.4mph /  16.7km/h 75% 0in /  0.0mm
12:39 72.9 °F /  22.7 °C 64.2 °F /  17.9 °C 30in /  1017.1hPa Sur 6.2mph /  10km/h 10mph /  16.1km/h 74.5% 0in /  0.0mm
12:44 72.9 °F /  22.7 °C 64.2 °F /  17.9 °C 30in /  1017.1hPa SSO 6.2mph /  10km/h 10.7mph /  17.2km/h 74% 0in /  0.0mm
12:49 72.9 °F /  22.7 °C 64.2 °F /  17.9 °C 30in /  1017.1hPa SSO 6.3mph /  10.2km/h 11.5mph /  18.5km/h 74% 0in /  0.0mm
12:54 72.9 °F /  22.7 °C 64.2 °F /  17.9 °C 30in /  1017.1hPa Sur 6.9mph /  11.1km/h 12mph /  19.3km/h 74% 0in /  0.0mm
12:59 73 °F /  22.8 °C 64.2 °F /  17.9 °C 30in /  1017.1hPa Sur 6.9mph /  11.1km/h 9.2mph /  14.8km/h 74% 0in /  0.0mm
13:04 73 °F /  22.8 °C 64.4 °F /  18 °C 30in /  1017.1hPa SSO 6.9mph /  11.1km/h 9mph /  14.5km/h 74% 0in /  0.0mm
13:09 73.2 °F /  22.9 °C 64.4 °F /  18 °C 30in /  1017.0hPa Sur 6.7mph /  10.8km/h 9.2mph /  14.8km/h 73.9% 0in /  0.0mm
13:14 73.6 °F /  23.1 °C 64.4 °F /  18 °C 30in /  1017.0hPa Sur 5.9mph /  9.5km/h 9mph /  14.5km/h 73.1% 0in /  0.0mm
13:19 73.8 °F /  23.2 °C 64.6 °F /  18.1 °C 30in /  1017.0hPa SSE 5.8mph /  9.3km/h 8.1mph /  13km/h 73% 0in /  0.0mm
13:24 73.9 °F /  23.3 °C 64.4 °F /  18 °C 30in /  1016.8hPa Sur 5.4mph /  8.7km/h 9.2mph /  14.8km/h 72.1% 0in /  0.0mm
13:29 73.9 °F /  23.3 °C 64.4 °F /  18 °C 30in /  1016.8hPa Sur 5.6mph /  9km/h 9.2mph /  14.8km/h 72% 0in /  0.0mm
13:34 74.1 °F /  23.4 °C 64.6 °F /  18.1 °C 30in /  1016.8hPa Sur 6.2mph /  10km/h 9mph /  14.5km/h 72% 0in /  0.0mm
13:39 74.5 °F /  23.6 °C 64.6 °F /  18.1 °C 30in /  1016.7hPa SE 5.9mph /  9.5km/h 8mph /  12.9km/h 71.4% 0in /  0.0mm
13:44 74.8 °F /  23.8 °C 64.9 °F /  18.3 °C 30in /  1016.7hPa SO 4.7mph /  7.6km/h 7mph /  11.3km/h 71.2% 0in /  0.0mm
13:49 75.2 °F /  24 °C 64.8 °F /  18.2 °C 30in /  1016.7hPa Oeste 4.5mph /  7.2km/h 7mph /  11.3km/h 70.1% 0in /  0.0mm
13:54 75.6 °F /  24.2 °C 64.9 °F /  18.3 °C 30in /  1016.3hPa SO 3.6mph /  5.8km/h 6.2mph /  10km/h 69.7% 0in /  0.0mm
13:59 75.6 °F /  24.2 °C 65.1 °F /  18.4 °C 30in /  1016.3hPa SO 3.6mph /  5.8km/h 6.9mph /  11.1km/h 69.9% 0in /  0.0mm
14:04 75.7 °F /  24.3 °C 65.1 °F /  18.4 °C 30in /  1016.3hPa OSO 3.6mph /  5.8km/h 8.5mph /  13.7km/h 69.8% 0in /  0.0mm
14:09 75.9 °F /  24.4 °C 65.3 °F /  18.5 °C 30in /  1016.2hPa OSO 3.5mph /  5.6km/h 9mph /  14.5km/h 69.8% 0in /  0.0mm
14:14 76.5 °F /  24.7 °C 65.5 °F /  18.6 °C 30in /  1016.2hPa OSO 3.1mph /  5km/h 6mph /  9.7km/h 69% 0in /  0.0mm
14:19 77.2 °F /  25.1 °C 65.8 °F /  18.8 °C 30in /  1016.2hPa OSO 2.9mph /  4.6km/h 6mph /  9.7km/h 68.1% 0in /  0.0mm
14:24 77.7 °F /  25.4 °C 65.7 °F /  18.7 °C 30in /  1015.8hPa OSO 2mph /  3.2km/h 6mph /  9.7km/h 66.8% 0in /  0.0mm
14:29 78.1 °F /  25.6 °C 66 °F /  18.9 °C 30in /  1015.8hPa SO 2.1mph /  3.3km/h 5.9mph /  9.5km/h 66.4% 0in /  0.0mm
14:34 78.4 °F /  25.8 °C 66 °F /  18.9 °C 30in /  1015.8hPa Sur 2.4mph /  3.9km/h 6mph /  9.7km/h 66% 0in /  0.0mm
14:39 78.3 °F /  25.7 °C 66 °F /  18.9 °C 30in /  1015.8hPa Este 2.7mph /  4.4km/h 8.1mph /  13km/h 66% 0in /  0.0mm
14:44 77.7 °F /  25.4 °C 65.8 °F /  18.8 °C 30in /  1015.8hPa Este 4mph /  6.4km/h 8mph /  12.9km/h 66.8% 0in /  0.0mm
14:49 78.1 °F /  25.6 °C 66.4 °F /  19.1 °C 30in /  1015.8hPa NE 3.8mph /  6.1km/h 8.1mph /  13km/h 67.4% 0in /  0.0mm
14:54 78.3 °F /  25.7 °C 66.4 °F /  19.1 °C 30in /  1015.6hPa NNO 2.9mph /  4.7km/h 9.2mph /  14.8km/h 67% 0in /  0.0mm
14:59 78.3 °F /  25.7 °C 66.4 °F /  19.1 °C 30in /  1015.6hPa NNO 3.2mph /  5.1km/h 9mph /  14.5km/h 67% 0in /  0.0mm
15:04 78.4 °F /  25.8 °C 66.4 °F /  19.1 °C 30in /  1015.6hPa NNE 4mph /  6.4km/h 11.5mph /  18.5km/h 66.8% 0in /  0.0mm
15:09 78.4 °F /  25.8 °C 66.6 °F /  19.2 °C 30in /  1015.2hPa NNE 4.1mph /  6.6km/h 12mph /  19.3km/h 67% 0in /  0.0mm
15:14 78.4 °F /  25.8 °C 66.6 °F /  19.2 °C 30in /  1015.2hPa NNE 4.3mph /  6.9km/h 9mph /  14.5km/h 67% 0in /  0.0mm
15:19 78.3 °F /  25.7 °C 66.4 °F /  19.1 °C 30in /  1015.2hPa NNE 4.4mph /  7.1km/h 9mph /  14.5km/h 67% 0in /  0.0mm
15:24 78.1 °F /  25.6 °C 66.2 °F /  19 °C 30in /  1015.1hPa NE 4.7mph /  7.6km/h 9.2mph /  14.8km/h 67% 0in /  0.0mm
15:29 78.3 °F /  25.7 °C 66.4 °F /  19.1 °C 30in /  1015.1hPa NE 4.6mph /  7.4km/h 9mph /  14.5km/h 67% 0in /  0.0mm
15:34 78.3 °F /  25.7 °C 66.4 °F /  19.1 °C 30in /  1015.1hPa ENE 4.3mph /  6.9km/h 9.2mph /  14.8km/h 67% 0in /  0.0mm
15:39 78.1 °F /  25.6 °C 66.6 °F /  19.2 °C 30in /  1015.1hPa NE 4.5mph /  7.3km/h 9.7mph /  15.6km/h 67.8% 0in /  0.0mm
15:44 78.1 °F /  25.6 °C 66.7 °F /  19.3 °C 30in /  1015.1hPa ENE 5.4mph /  8.7km/h 10.4mph /  16.7km/h 68% 0in /  0.0mm
15:49 78.3 °F /  25.7 °C 66.7 °F /  19.3 °C 30in /  1015.1hPa NE 5.4mph /  8.7km/h 10mph /  16.1km/h 67.9% 0in /  0.0mm
15:54 78.3 °F /  25.7 °C 66.6 °F /  19.2 °C 30in /  1014.9hPa ENE 5.4mph /  8.7km/h 8.5mph /  13.7km/h 67.5% 0in /  0.0mm
15:59 78.3 °F /  25.7 °C 66.4 °F /  19.1 °C 30in /  1014.9hPa ENE 5.2mph /  8.3km/h 9mph /  14.5km/h 67% 0in /  0.0mm
16:04 78.4 °F /  25.8 °C 66.7 °F /  19.3 °C 30in /  1014.9hPa NE 4.3mph /  6.9km/h 9mph /  14.5km/h 67.4% 0in /  0.0mm
16:09 78.4 °F /  25.8 °C 66.6 °F /  19.2 °C 30in /  1014.6hPa Este 4.4mph /  7.1km/h 9.2mph /  14.8km/h 67.1% 0in /  0.0mm
16:14 78.8 °F /  26 °C 66.7 °F /  19.3 °C 30in /  1014.6hPa ENE 4.7mph /  7.6km/h 9mph /  14.5km/h 66.5% 0in /  0.0mm
16:19 79.2 °F /  26.2 °C 66.7 °F /  19.3 °C 30in /  1014.7hPa ENE 4.6mph /  7.4km/h 9.2mph /  14.8km/h 65.9% 0in /  0.0mm
16:24 79.2 °F /  26.2 °C 66.7 °F /  19.3 °C 30in /  1014.7hPa NE 4.3mph /  6.9km/h 11.4mph /  18.3km/h 65.9% 0in /  0.0mm
16:29 79 °F /  26.1 °C 67.3 °F /  19.6 °C 30in /  1014.7hPa NE 4.6mph /  7.4km/h 12mph /  19.3km/h 67.5% 0in /  0.0mm
16:34 78.6 °F /  25.9 °C 67.1 °F /  19.5 °C 30in /  1014.7hPa NE 5.9mph /  9.5km/h 12.5mph /  20.1km/h 68% 0in /  0.0mm
16:39 78.4 °F /  25.8 °C 67.1 °F /  19.5 °C 30in /  1014.5hPa ENE 5.9mph /  9.5km/h 13mph /  20.9km/h 68.1% 0in /  0.0mm
16:44 78.6 °F /  25.9 °C 66.7 °F /  19.3 °C 30in /  1014.5hPa ENE 5.9mph /  9.5km/h 9mph /  14.5km/h 67.1% 0in /  0.0mm
16:49 78.6 °F /  25.9 °C 66.9 °F /  19.4 °C 30in /  1014.5hPa NE 5.9mph /  9.5km/h 14mph /  22.5km/h 67.4% 0in /  0.0mm
16:54 78.8 °F /  26 °C 66.9 °F /  19.4 °C 30in /  1014.5hPa NE 5.9mph /  9.5km/h 14mph /  22.5km/h 67.1% 0in /  0.0mm
16:59 78.8 °F /  26 °C 66.4 °F /  19.1 °C 30in /  1014.5hPa NE 6.5mph /  10.4km/h 14mph /  22.5km/h 65.6% 0in /  0.0mm
17:04 78.6 °F /  25.9 °C 66.7 °F /  19.3 °C 30in /  1014.5hPa NE 8.1mph /  13km/h 13mph /  20.9km/h 66.9% 0in /  0.0mm
17:09 78.8 °F /  26 °C 66.4 °F /  19.1 °C 30in /  1014.4hPa NE 7.8mph /  12.5km/h 14mph /  22.5km/h 66% 0in /  0.0mm
17:14 78.6 °F /  25.9 °C 67.3 °F /  19.6 °C 30in /  1014.4hPa NE 6.4mph /  10.3km/h 14mph /  22.5km/h 68.1% 0in /  0.0mm
17:19 78.4 °F /  25.8 °C 67.5 °F /  19.7 °C 30in /  1014.4hPa ENE 6.3mph /  10.2km/h 9.2mph /  14.8km/h 69% 0in /  0.0mm
17:24 78.4 °F /  25.8 °C 67.3 °F /  19.6 °C 30in /  1014.3hPa ENE 5.9mph /  9.5km/h 10.7mph /  17.2km/h 68.7% 0in /  0.0mm
17:29 78.3 °F /  25.7 °C 67.1 °F /  19.5 °C 30in /  1014.3hPa NE 5.9mph /  9.5km/h 11.4mph /  18.3km/h 68.5% 0in /  0.0mm
17:34 78.3 °F /  25.7 °C 67.3 °F /  19.6 °C 30in /  1014.3hPa NE 5.9mph /  9.5km/h 12.7mph /  20.4km/h 69% 0in /  0.0mm
17:39 78.4 °F /  25.8 °C 67.6 °F /  19.8 °C 29.9in /  1014.1hPa NE 6mph /  9.6km/h 13mph /  20.9km/h 69.8% 0in /  0.0mm
17:44 78.4 °F /  25.8 °C 67.8 °F /  19.9 °C 29.9in /  1014.1hPa ENE 6.2mph /  10km/h 12.5mph /  20.1km/h 70% 0in /  0.0mm
17:49 78.6 °F /  25.9 °C 68 °F /  20 °C 30in /  1014.2hPa Este 6mph /  9.7km/h 13mph /  20.9km/h 70% 0in /  0.0mm
17:54 78.4 °F /  25.8 °C 67.8 °F /  19.9 °C 30in /  1014.2hPa ENE 5.4mph /  8.7km/h 13.8mph /  22.2km/h 70% 0in /  0.0mm
17:59 78.3 °F /  25.7 °C 67.8 °F /  19.9 °C 30in /  1014.2hPa ENE 5.6mph /  9km/h 14mph /  22.5km/h 70.2% 0in /  0.0mm
18:04 78.1 °F /  25.6 °C 67.5 °F /  19.7 °C 30in /  1014.2hPa ENE 6.2mph /  10km/h 14mph /  22.5km/h 70% 0in /  0.0mm
18:09 78.1 °F /  25.6 °C 67.5 °F /  19.7 °C 30in /  1014.2hPa NE 6.3mph /  10.2km/h 13mph /  20.9km/h 70.1% 0in /  0.0mm
18:14 78.1 °F /  25.6 °C 67.8 °F /  19.9 °C 30in /  1014.2hPa NE 6.9mph /  11.1km/h 13mph /  20.9km/h 70.8% 0in /  0.0mm
18:19 78.1 °F /  25.6 °C 67.5 °F /  19.7 °C 30in /  1014.2hPa NE 7mph /  11.3km/h 13mph /  20.9km/h 70.1% 0in /  0.0mm
18:24 77.9 °F /  25.5 °C 67.8 °F /  19.9 °C 29.9in /  1014.0hPa NE 7.6mph /  12.2km/h 15mph /  24.1km/h 70.9% 0in /  0.0mm
18:29 77.9 °F /  25.5 °C 67.8 °F /  19.9 °C 29.9in /  1014.0hPa NE 7.7mph /  12.4km/h 15mph /  24.1km/h 71.5% 0in /  0.0mm
18:34 77.7 °F /  25.4 °C 67.5 °F /  19.7 °C 29.9in /  1014.0hPa NE 8.1mph /  13km/h 13mph /  20.9km/h 71% 0in /  0.0mm
18:39 77.4 °F /  25.2 °C 67.6 °F /  19.8 °C 29.9in /  1013.9hPa NE 8.3mph /  13.4km/h 16.1mph /  25.9km/h 72% 0in /  0.0mm
18:44 77 °F /  25 °C 67.6 °F /  19.8 °C 29.9in /  1013.9hPa NE 9.2mph /  14.8km/h 16.8mph /  27km/h 73% 0in /  0.0mm
18:49 76.8 °F /  24.9 °C 67.5 °F /  19.7 °C 29.9in /  1014.1hPa NE 9.1mph /  14.6km/h 17.3mph /  27.8km/h 73% 0in /  0.0mm
18:54 76.6 °F /  24.8 °C 67.5 °F /  19.7 °C 29.9in /  1014.1hPa NE 8.7mph /  14km/h 15mph /  24.1km/h 73% 0in /  0.0mm
18:59 76.6 °F /  24.8 °C 67.5 °F /  19.7 °C 29.9in /  1014.1hPa NE 8.6mph /  13.8km/h 16.1mph /  25.9km/h 73.4% 0in /  0.0mm
19:04 76.5 °F /  24.7 °C 67.6 °F /  19.8 °C 29.9in /  1014.1hPa NE 8.1mph /  13km/h 17.5mph /  28.2km/h 74% 0in /  0.0mm
19:09 76.5 °F /  24.7 °C 67.6 °F /  19.8 °C 29.9in /  1014.1hPa NE 8.4mph /  13.6km/h 17.3mph /  27.8km/h 74% 0in /  0.0mm
19:14 76.3 °F /  24.6 °C 67.6 °F /  19.8 °C 29.9in /  1014.1hPa NE 9.7mph /  15.6km/h 15mph /  24.1km/h 74.5% 0in /  0.0mm
19:19 76.1 °F /  24.5 °C 67.6 °F /  19.8 °C 30in /  1014.2hPa NE 9.2mph /  14.8km/h 13mph /  20.9km/h 75% 0in /  0.0mm
19:24 75.9 °F /  24.4 °C 67.8 °F /  19.9 °C 30in /  1014.2hPa NE 7.4mph /  11.9km/h 13.5mph /  21.7km/h 75.9% 0in /  0.0mm
19:29 75.7 °F /  24.3 °C 67.6 °F /  19.8 °C 30in /  1014.2hPa NE 7.5mph /  12.1km/h 14mph /  22.5km/h 76% 0in /  0.0mm
19:34 75.6 °F /  24.2 °C 67.6 °F /  19.8 °C 30in /  1014.2hPa NE 8.1mph /  13km/h 12.7mph /  20.4km/h 76.3% 0in /  0.0mm
19:39 75.6 °F /  24.2 °C 67.8 °F /  19.9 °C 30in /  1014.2hPa NE 7.8mph /  12.5km/h 13mph /  20.9km/h 77% 0in /  0.0mm
19:44 75.4 °F /  24.1 °C 67.8 °F /  19.9 °C 30in /  1014.2hPa NE 6.4mph /  10.3km/h 10.7mph /  17.2km/h 77.7% 0in /  0.0mm
19:49 75 °F /  23.9 °C 67.8 °F /  19.9 °C 30in /  1014.3hPa NE 6.3mph /  10.2km/h 11mph /  17.7km/h 78.2% 0in /  0.0mm
19:54 74.8 °F /  23.8 °C 68 °F /  20 °C 30in /  1014.3hPa NE 6.2mph /  10km/h 10mph /  16.1km/h 79% 0in /  0.0mm
19:59 74.8 °F /  23.8 °C 68 °F /  20 °C 30in /  1014.3hPa ENE 5.4mph /  8.7km/h 7mph /  11.3km/h 79.1% 0in /  0.0mm
20:04 74.7 °F /  23.7 °C 68.2 °F /  20.1 °C 30in /  1014.4hPa NE 3.1mph /  5km/h 6mph /  9.7km/h 80% 0in /  0.0mm
20:09 74.7 °F /  23.7 °C 68.2 °F /  20.1 °C 30in /  1014.4hPa NE 3.1mph /  5km/h 6mph /  9.7km/h 80.6% 0in /  0.0mm
20:14 74.5 °F /  23.6 °C 68.4 °F /  20.2 °C 30in /  1014.4hPa NE 3.1mph /  5km/h 6.9mph /  11.1km/h 81.1% 0in /  0.0mm
20:19 74.5 °F /  23.6 °C 68.5 °F /  20.3 °C 30in /  1014.6hPa NE 3.2mph /  5.1km/h 7mph /  11.3km/h 82% 0in /  0.0mm
20:24 74.3 °F /  23.5 °C 68.4 °F /  20.2 °C 30in /  1014.6hPa NE 3.6mph /  5.8km/h 7mph /  11.3km/h 82% 0in /  0.0mm
20:29 74.3 °F /  23.5 °C 68.7 °F /  20.4 °C 30in /  1014.6hPa NE 3.7mph /  5.9km/h 6mph /  9.7km/h 83% 0in /  0.0mm
20:34 74.1 °F /  23.4 °C 68.5 °F /  20.3 °C 30in /  1014.6hPa NE 4mph /  6.4km/h 5mph /  8km/h 83% 0in /  0.0mm
20:39 74.1 °F /  23.4 °C 68.5 °F /  20.3 °C 30in /  1014.6hPa NE 3.8mph /  6.1km/h 5.2mph /  8.4km/h 83% 0in /  0.0mm
20:44 74.1 °F /  23.4 °C 68.5 °F /  20.3 °C 30in /  1014.6hPa NE 3.1mph /  5km/h 5.2mph /  8.4km/h 83% 0in /  0.0mm
20:49 73.9 °F /  23.3 °C 68.7 °F /  20.4 °C 30in /  1014.8hPa NNE 3mph /  4.9km/h 5mph /  8km/h 83.8% 0in /  0.0mm
20:54 73.9 °F /  23.3 °C 68.7 °F /  20.4 °C 30in /  1014.8hPa North 2.9mph /  4.7km/h 3.6mph /  5.8km/h 84% 0in /  0.0mm
20:59 73.9 °F /  23.3 °C 68.7 °F /  20.4 °C 30in /  1014.8hPa North 2.6mph /  4.2km/h 4mph /  6.4km/h 84% 0in /  0.0mm
21:04 73.9 °F /  23.3 °C 68.7 °F /  20.4 °C 30in /  1014.8hPa NNE 1.8mph /  2.9km/h 6.2mph /  10km/h 84% 0in /  0.0mm
21:09 73.8 °F /  23.2 °C 68.5 °F /  20.3 °C 30in /  1014.8hPa NNE 2.1mph /  3.3km/h 6mph /  9.7km/h 84% 0in /  0.0mm
21:14 73.8 °F /  23.2 °C 68.9 °F /  20.5 °C 30in /  1014.8hPa NE 3.1mph /  5km/h 6.9mph /  11.1km/h 84.8% 0in /  0.0mm
21:19 73.6 °F /  23.1 °C 68.7 °F /  20.4 °C 30in /  1014.8hPa NE 3.3mph /  5.3km/h 7mph /  11.3km/h 85% 0in /  0.0mm
21:24 73.6 °F /  23.1 °C 68.7 °F /  20.4 °C 30in /  1014.7hPa NNE 4mph /  6.4km/h 6.9mph /  11.1km/h 85% 0in /  0.0mm
21:29 73.6 °F /  23.1 °C 68.9 °F /  20.5 °C 30in /  1014.7hPa NE 3.8mph /  6.1km/h 7mph /  11.3km/h 85.3% 0in /  0.0mm
21:34 73.4 °F /  23 °C 68.9 °F /  20.5 °C 30in /  1014.9hPa NE 2.9mph /  4.7km/h 6.2mph /  10km/h 86% 0in /  0.0mm
21:39 73.2 °F /  22.9 °C 68.7 °F /  20.4 °C 30in /  1014.9hPa NE 2.9mph /  4.7km/h 6mph /  9.7km/h 86% 0in /  0.0mm
21:44 73.2 °F /  22.9 °C 68.7 °F /  20.4 °C 30in /  1014.9hPa NE 3.1mph /  5km/h 6mph /  9.7km/h 86% 0in /  0.0mm
21:49 73 °F /  22.8 °C 68.9 °F /  20.5 °C 30in /  1014.9hPa NE 3.2mph /  5.1km/h 7.4mph /  11.9km/h 86.7% 0in /  0.0mm
21:54 73 °F /  22.8 °C 68.9 °F /  20.5 °C 30in /  1014.9hPa NE 3.6mph /  5.8km/h 7mph /  11.3km/h 87% 0in /  0.0mm
21:59 73 °F /  22.8 °C 68.9 °F /  20.5 °C 30in /  1014.9hPa NE 3.6mph /  5.8km/h 7mph /  11.3km/h 87% 0in /  0.0mm
22:04 72.9 °F /  22.7 °C 68.9 °F /  20.5 °C 30in /  1014.9hPa NE 3.6mph /  5.8km/h 6.9mph /  11.1km/h 87% 0in /  0.0mm
22:09 72.9 °F /  22.7 °C 68.9 °F /  20.5 °C 30in /  1014.9hPa NE 3.7mph /  5.9km/h 8.5mph /  13.7km/h 87.3% 0in /  0.0mm
22:14 72.9 °F /  22.7 °C 69.1 °F /  20.6 °C 30in /  1014.9hPa NE 4mph /  6.4km/h 9mph /  14.5km/h 88% 0in /  0.0mm
22:19 72.9 °F /  22.7 °C 69.1 °F /  20.6 °C 30in /  1015.0hPa NE 4.2mph /  6.7km/h 8.5mph /  13.7km/h 88% 0in /  0.0mm
22:24 72.7 °F /  22.6 °C 68.9 °F /  20.5 °C 30in /  1015.0hPa NE 4.7mph /  7.6km/h 9mph /  14.5km/h 88% 0in /  0.0mm
22:29 72.7 °F /  22.6 °C 68.9 °F /  20.5 °C 30in /  1015.0hPa NE 4.8mph /  7.7km/h 9.2mph /  14.8km/h 88% 0in /  0.0mm
22:34 72.7 °F /  22.6 °C 69.1 °F /  20.6 °C 30in /  1015.0hPa NE 5.2mph /  8.4km/h 9mph /  14.5km/h 88.8% 0in /  0.0mm
22:39 72.5 °F /  22.5 °C 69.1 °F /  20.6 °C 30in /  1015.0hPa NE 5.1mph /  8.2km/h 10mph /  16.1km/h 89% 0in /  0.0mm
22:44 72.5 °F /  22.5 °C 69.1 °F /  20.6 °C 30in /  1015.0hPa NE 4.7mph /  7.6km/h 10.4mph /  16.7km/h 89% 0in /  0.0mm
22:49 72.3 °F /  22.4 °C 68.9 °F /  20.5 °C 30in /  1015.2hPa NE 4.8mph /  7.7km/h 8.1mph /  13km/h 89% 0in /  0.0mm
22:54 72.3 °F /  22.4 °C 68.9 °F /  20.5 °C 30in /  1015.2hPa NE 5.2mph /  8.4km/h 8mph /  12.9km/h 89% 0in /  0.0mm
22:59 72.3 °F /  22.4 °C 68.9 °F /  20.5 °C 30in /  1015.2hPa NE 5mph /  8km/h 7mph /  11.3km/h 89% 0in /  0.0mm
23:04 72.3 °F /  22.4 °C 68.9 °F /  20.5 °C 30in /  1015.2hPa NE 4.3mph /  6.9km/h 7mph /  11.3km/h 89% 0in /  0.0mm
23:09 72.1 °F /  22.3 °C 68.7 °F /  20.4 °C 30in /  1015.2hPa NE 4.3mph /  6.9km/h 7mph /  11.3km/h 89% 0in /  0.0mm
23:14 72.1 °F /  22.3 °C 68.7 °F /  20.4 °C 30in /  1015.2hPa NE 4.3mph /  6.9km/h 7mph /  11.3km/h 89% 0in /  0.0mm
23:19 72.1 °F /  22.3 °C 68.7 °F /  20.4 °C 30in /  1015.4hPa NE 4.2mph /  6.7km/h 6.2mph /  10km/h 89% 0in /  0.0mm
23:24 72 °F /  22.2 °C 68.5 °F /  20.3 °C 30in /  1015.4hPa ENE 3.6mph /  5.8km/h 6mph /  9.7km/h 89% 0in /  0.0mm
23:29 72 °F /  22.2 °C 68.5 °F /  20.3 °C 30in /  1015.4hPa NE 3.5mph /  5.6km/h 6mph /  9.7km/h 89% 0in /  0.0mm
23:34 72 °F /  22.2 °C 68.5 °F /  20.3 °C 30in /  1015.4hPa ENE 2.9mph /  4.7km/h 5mph /  8km/h 89% 0in /  0.0mm
23:39 72 °F /  22.2 °C 68.7 °F /  20.4 °C 30in /  1015.4hPa ENE 2.8mph /  4.5km/h 5.2mph /  8.4km/h 89.6% 0in /  0.0mm
23:44 72 °F /  22.2 °C 68.9 °F /  20.5 °C 30in /  1015.4hPa NE 2.4mph /  3.9km/h 5mph /  8km/h 90% 0in /  0.0mm
23:49 72 °F /  22.2 °C 68.9 °F /  20.5 °C 30in /  1015.5hPa NE 2.3mph /  3.7km/h 5mph /  8km/h 90% 0in /  0.0mm
23:54 72 °F /  22.2 °C 68.9 °F /  20.5 °C 30in /  1015.5hPa NE 2mph /  3.2km/h 4.7mph /  7.6km/h 90% 0in /  0.0mm
23:59 72 °F /  22.2 °C 68.9 °F /  20.5 °C 30in /  1015.5hPa ENE 2.1mph /  3.4km/h 5mph /  8km/h 90% 0in /  0.0mm
Murcia-Puente Tocinos, Espa?a
Compliments of Weather Underground - 3.25 mb

La estación de MeteoMurcia.com, publica sus datos en los siguientes proyectos:

Weather Underground PWS IMURCIAP2 Meteoclimatic www.awekas.at

W3Counter
Web Analytics